Time;durP1;ratioP1;P1;durP2;ratioP2;P2;SDS_P1;SDS_P2;PMS_P1;PMS_P2;Temp;Humidity;BMP_temperature;BMP_pressure;BME280_temperature;BME280_humidity;BME280_pressure;Samples;Min_cycle;Max_cycle;Signal;HPM_P1;HPM_P2
2021/11/17 02:26:39;;;;;;;34.53;14.68;;;5.40;99.90;;;;;;5056517;28;20123;-63
2021/11/17 02:29:05;;;;;;;33.03;14.05;;;5.40;99.90;;;;;;5056283;28;20119;-63
2021/11/17 02:31:30;;;;;;;33.17;14.57;;;5.40;99.90;;;;;;5057765;28;20033;-63
2021/11/17 02:33:56;;;;;;;27.13;13.05;;;5.30;99.90;;;;;;5058194;28;20082;-63
2021/11/17 02:36:22;;;;;;;34.42;14.15;;;5.30;99.90;;;;;;5057749;28;20035;-63
2021/11/17 02:38:48;;;;;;;34.60;15.00;;;5.30;99.90;;;;;;5057508;28;20469;-64
2021/11/17 02:41:14;;;;;;;39.42;16.02;;;5.20;99.90;;;;;;5058506;28;20106;-63
2021/11/17 02:43:40;;;;;;;38.10;17.08;;;5.20;99.90;;;;;;5057967;28;20864;-63
2021/11/17 02:46:05;;;;;;;36.80;16.08;;;5.20;99.90;;;;;;5058131;28;20403;-63
2021/11/17 02:48:31;;;;;;;35.28;15.32;;;5.20;99.90;;;;;;5058756;28;20040;-63
2021/11/17 02:50:57;;;;;;;34.70;14.43;;;5.20;99.90;;;;;;5059445;28;20630;-64
2021/11/17 02:53:23;;;;;;;32.63;14.50;;;5.20;99.90;;;;;;5060881;28;20494;-64
2021/11/17 02:55:48;;;;;;;32.22;14.40;;;5.20;99.90;;;;;;5060423;28;20844;-63
2021/11/17 02:58:14;;;;;;;29.42;13.20;;;5.20;99.90;;;;;;5058001;28;20032;-64
2021/11/17 03:00:39;;;;;;;34.00;14.80;;;5.20;99.90;;;;;;5040120;28;20051;-63
2021/11/17 03:03:05;;;;;;;27.48;13.10;;;5.30;99.90;;;;;;5057245;28;20021;-63
2021/11/17 03:05:31;;;;;;;28.60;12.43;;;5.30;99.90;;;;;;5057706;28;20113;-63
2021/11/17 03:07:56;;;;;;;31.30;14.23;;;5.30;99.90;;;;;;5057479;28;20681;-63
2021/11/17 03:10:22;;;;;;;28.23;12.48;;;5.20;99.90;;;;;;5057314;28;20032;-63
2021/11/17 03:12:47;;;;;;;34.38;13.75;;;5.20;99.90;;;;;;5039802;28;20048;-63
2021/11/17 03:15:13;;;;;;;27.33;13.75;;;5.30;99.90;;;;;;5037242;28;20683;-63
2021/11/17 03:17:39;;;;;;;29.50;13.02;;;5.30;99.90;;;;;;5039750;28;20021;-63
2021/11/17 03:20:05;;;;;;;32.05;13.93;;;5.20;99.90;;;;;;5057984;28;20396;-63
2021/11/17 03:22:30;;;;;;;26.48;12.35;;;5.20;99.90;;;;;;5057740;28;20392;-64
2021/11/17 03:24:56;;;;;;;31.27;12.88;;;5.20;99.90;;;;;;5057951;28;20036;-63
2021/11/17 03:27:21;;;;;;;32.35;14.73;;;5.20;99.90;;;;;;5056808;28;20051;-63
2021/11/17 03:29:47;;;;;;;31.15;13.32;;;5.20;99.90;;;;;;5057618;28;20027;-63
2021/11/17 03:32:12;;;;;;;31.58;13.75;;;5.20;99.90;;;;;;5057801;28;20034;-63
2021/11/17 03:34:38;;;;;;;33.88;14.38;;;5.20;99.90;;;;;;5057005;28;20714;-63
2021/11/17 03:37:03;;;;;;;30.35;13.25;;;5.20;99.90;;;;;;5039481;28;20025;-63
2021/11/17 03:39:28;;;;;;;31.75;13.63;;;5.20;99.90;;;;;;5056881;28;20063;-63
2021/11/17 03:41:54;;;;;;;30.15;13.15;;;5.20;99.90;;;;;;5057484;28;20059;-63
2021/11/17 03:44:19;;;;;;;30.00;13.10;;;5.10;99.90;;;;;;5057969;28;20040;-63
2021/11/17 03:46:45;;;;;;;26.73;11.65;;;5.20;99.90;;;;;;5022393;28;20025;-63
2021/11/17 03:49:10;;;;;;;30.30;10.55;;;5.20;99.90;;;;;;5056947;28;20052;-63
2021/11/17 03:51:36;;;;;;;24.98;10.13;;;5.10;99.90;;;;;;5058066;28;20062;-64
2021/11/17 03:54:01;;;;;;;23.60;10.25;;;5.10;99.90;;;;;;5039434;28;20040;-63
2021/11/17 03:56:27;;;;;;;21.65;9.60;;;5.20;99.90;;;;;;5057816;28;20021;-63
2021/11/17 03:58:52;;;;;;;24.35;10.32;;;5.20;99.90;;;;;;5057466;28;20035;-63
2021/11/17 04:01:18;;;;;;;20.20;10.27;;;5.10;99.90;;;;;;5058223;28;20728;-63
2021/11/17 04:03:45;;;;;;;26.15;10.77;;;5.10;99.90;;;;;;5039478;28;20078;-63
2021/11/17 04:06:10;;;;;;;26.65;10.13;;;5.00;99.90;;;;;;5057755;28;20571;-64
2021/11/17 04:08:36;;;;;;;21.80;9.63;;;5.10;99.90;;;;;;5057818;28;20039;-63
2021/11/17 04:11:01;;;;;;;22.25;10.75;;;5.10;99.90;;;;;;5058198;28;20033;-64
2021/11/17 04:13:26;;;;;;;24.02;10.50;;;5.00;99.90;;;;;;5059307;28;20039;-63
2021/11/17 04:15:52;;;;;;;27.65;11.43;;;5.00;99.90;;;;;;5059562;28;20059;-63
2021/11/17 04:18:17;;;;;;;27.27;11.30;;;5.00;99.90;;;;;;5059059;28;20033;-63
2021/11/17 04:20:43;;;;;;;31.38;12.65;;;5.00;99.90;;;;;;5059800;28;20029;-63
2021/11/17 04:23:08;;;;;;;31.00;11.90;;;5.00;99.90;;;;;;5062716;28;20544;-63
2021/11/17 04:25:34;;;;;;;27.45;11.40;;;5.00;99.90;;;;;;5061589;28;20089;-63
2021/11/17 04:27:59;;;;;;;28.83;12.05;;;5.00;99.90;;;;;;5060983;28;20030;-63
2021/11/17 04:30:25;;;;;;;31.52;11.95;;;5.00;99.90;;;;;;5060832;28;20511;-63
2021/11/17 04:32:50;;;;;;;30.48;13.15;;;5.00;99.90;;;;;;5061598;28;20035;-63
2021/11/17 04:35:16;;;;;;;29.17;11.32;;;5.00;99.90;;;;;;5059986;28;20032;-63
2021/11/17 04:37:41;;;;;;;29.58;11.77;;;4.90;99.90;;;;;;5057915;28;20037;-63
2021/11/17 04:40:07;;;;;;;32.53;12.60;;;4.90;99.90;;;;;;5043141;28;20029;-63
2021/11/17 04:42:32;;;;;;;27.80;11.93;;;4.90;99.90;;;;;;5042899;28;20552;-63
2021/11/17 04:44:58;;;;;;;26.00;11.75;;;4.90;99.90;;;;;;5043203;28;20040;-64
2021/11/17 04:47:23;;;;;;;25.60;11.93;;;4.90;99.90;;;;;;5061034;28;20028;-63
2021/11/17 04:49:49;;;;;;;24.98;10.82;;;4.90;99.90;;;;;;5042008;28;20043;-63
2021/11/17 04:52:14;;;;;;;26.25;10.77;;;4.90;99.90;;;;;;5061371;28;20044;-63
2021/11/17 04:54:40;;;;;;;26.23;10.95;;;4.90;99.90;;;;;;5060931;28;20117;-63
2021/11/17 04:57:05;;;;;;;25.63;11.63;;;4.90;99.90;;;;;;5060306;28;20025;-63
2021/11/17 04:59:31;;;;;;;24.00;10.77;;;4.90;99.90;;;;;;5060656;28;20866;-63
2021/11/17 05:01:56;;;;;;;29.63;12.02;;;4.90;99.90;;;;;;5060427;28;20111;-63
2021/11/17 05:04:22;;;;;;;27.58;11.40;;;4.90;99.90;;;;;;5060479;28;20060;-63
2021/11/17 05:06:47;;;;;;;26.38;11.05;;;4.90;99.90;;;;;;5060585;28;20590;-63
2021/11/17 05:09:13;;;;;;;25.83;10.32;;;4.90;99.90;;;;;;5059617;28;20043;-63
2021/11/17 05:11:38;;;;;;;32.45;11.57;;;4.90;99.90;;;;;;5041574;28;20028;-63
2021/11/17 05:14:04;;;;;;;29.38;11.23;;;4.90;99.90;;;;;;5042100;28;20769;-63
2021/11/17 05:16:29;;;;;;;26.33;12.05;;;5.00;99.90;;;;;;5058386;28;20028;-63
2021/11/17 05:18:55;;;;;;;27.35;11.13;;;4.90;99.90;;;;;;5041099;28;20439;-63
2021/11/17 05:21:20;;;;;;;30.23;11.90;;;4.90;99.90;;;;;;5059546;28;20071;-63
2021/11/17 05:23:46;;;;;;;36.63;16.65;;;4.90;99.90;;;;;;5060408;28;20033;-63
2021/11/17 05:26:12;;;;;;;28.98;12.73;;;4.80;99.90;;;;;;5059612;28;20699;-63
2021/11/17 05:28:37;;;;;;;35.67;15.38;;;4.80;99.90;;;;;;5059908;28;20035;-63
2021/11/17 05:31:03;;;;;;;36.63;12.77;;;4.80;99.90;;;;;;5041437;28;20559;-63
2021/11/17 05:33:28;;;;;;;31.25;12.68;;;4.80;99.90;;;;;;5058914;28;20040;-63
2021/11/17 05:35:54;;;;;;;28.02;12.45;;;4.80;99.90;;;;;;5060335;28;20044;-63
2021/11/17 05:38:19;;;;;;;30.38;13.75;;;4.70;99.90;;;;;;5059524;28;20029;-63
2021/11/17 05:40:45;;;;;;;31.50;14.65;;;4.80;99.90;;;;;;5041093;28;20638;-63
2021/11/17 05:43:10;;;;;;;29.23;12.57;;;4.80;99.90;;;;;;5060324;28;20128;-64
2021/11/17 05:45:36;;;;;;;32.13;11.75;;;4.80;99.90;;;;;;5059671;28;20052;-63
2021/11/17 05:48:02;;;;;;;28.00;12.45;;;4.70;99.90;;;;;;5065116;28;20036;-63
2021/11/17 05:50:27;;;;;;;27.23;12.02;;;4.70;99.90;;;;;;5059126;28;20028;-63
2021/11/17 05:52:53;;;;;;;28.48;12.73;;;4.70;99.90;;;;;;5058710;28;20135;-63
2021/11/17 05:55:18;;;;;;;30.90;14.00;;;4.70;99.90;;;;;;5037606;28;20428;-63
2021/11/17 05:57:44;;;;;;;26.20;11.48;;;4.70;99.90;;;;;;5058925;28;20060;-63
2021/11/17 06:00:09;;;;;;;28.42;12.07;;;4.80;99.90;;;;;;5058424;28;20761;-63
2021/11/17 06:02:35;;;;;;;31.15;13.40;;;4.80;99.90;;;;;;5058979;28;20020;-63
2021/11/17 06:05:00;;;;;;;31.80;13.20;;;4.80;99.90;;;;;;5058763;28;20793;-63
2021/11/17 06:07:26;;;;;;;28.95;12.32;;;4.80;99.90;;;;;;5058932;28;20052;-63
2021/11/17 06:09:51;;;;;;;24.75;11.48;;;4.80;99.90;;;;;;5041052;28;20040;-63
2021/11/17 06:12:17;;;;;;;26.77;11.88;;;4.70;99.90;;;;;;5057402;28;20112;-63
2021/11/17 06:14:42;;;;;;;29.23;13.23;;;4.80;99.90;;;;;;5060077;28;20028;-64
2021/11/17 06:17:08;;;;;;;25.35;11.18;;;4.80;99.90;;;;;;5058845;28;20563;-63
2021/11/17 06:19:33;;;;;;;35.08;14.35;;;4.70;99.90;;;;;;5059496;28;20769;-63
2021/11/17 06:21:59;;;;;;;28.08;12.48;;;4.70;99.90;;;;;;5059943;28;20602;-63
2021/11/17 06:24:24;;;;;;;27.23;12.25;;;4.70;99.90;;;;;;5059231;28;20044;-63
2021/11/17 06:26:50;;;;;;;24.42;10.75;;;4.70;99.90;;;;;;5059535;28;20048;-67
2021/11/17 06:29:15;;;;;;;29.48;13.07;;;4.70;99.90;;;;;;5040565;28;20029;-64
2021/11/17 06:31:41;;;;;;;29.30;12.65;;;4.70;99.90;;;;;;5058715;28;20760;-64
2021/11/17 06:34:06;;;;;;;22.05;11.38;;;4.70;99.90;;;;;;5057680;28;20111;-64
2021/11/17 06:36:32;;;;;;;24.83;11.85;;;4.60;99.90;;;;;;5057493;28;20832;-63
2021/11/17 06:38:57;;;;;;;23.35;11.27;;;4.70;99.90;;;;;;5057426;28;20089;-63
2021/11/17 06:41:23;;;;;;;30.40;11.13;;;4.70;99.90;;;;;;5057886;28;20761;-63
2021/11/17 06:43:48;;;;;;;24.75;11.70;;;4.60;99.90;;;;;;5057370;28;20035;-63
2021/11/17 06:46:14;;;;;;;22.92;10.25;;;4.60;99.90;;;;;;5058159;28;20142;-64
2021/11/17 06:48:39;;;;;;;25.17;11.23;;;4.70;99.90;;;;;;5057013;28;20043;-63
2021/11/17 06:51:05;;;;;;;26.38;11.05;;;4.50;99.90;;;;;;5058158;28;20036;-63
2021/11/17 06:53:30;;;;;;;32.63;12.18;;;4.40;99.90;;;;;;5058463;28;20467;-63
2021/11/17 06:55:56;;;;;;;25.02;11.27;;;5.00;99.90;;;;;;5039999;28;20619;-63
2021/11/17 06:58:21;;;;;;;31.30;12.10;;;3.90;99.90;;;;;;5036776;28;20033;-63
2021/11/17 07:00:47;;;;;;;25.48;12.07;;;4.70;99.90;;;;;;5057718;28;20027;-63
2021/11/17 07:03:12;;;;;;;26.45;11.52;;;4.80;99.90;;;;;;5058085;28;20131;-63
2021/11/17 07:05:38;;;;;;;28.02;10.50;;;5.10;99.90;;;;;;5058442;28;20043;-63
2021/11/17 07:08:04;;;;;;;24.92;11.30;;;5.40;99.90;;;;;;5057607;28;20439;-63
2021/11/17 07:10:29;;;;;;;29.88;11.85;;;4.80;99.90;;;;;;5057405;28;20123;-63
2021/11/17 07:12:55;;;;;;;26.15;11.80;;;4.90;99.90;;;;;;5057929;28;20104;-63
2021/11/17 07:15:20;;;;;;;27.30;12.05;;;4.90;99.90;;;;;;5023392;28;20064;-63
2021/11/17 07:17:46;;;;;;;26.77;11.52;;;4.80;99.90;;;;;;5057725;28;20926;-63
2021/11/17 07:20:11;;;;;;;28.88;11.88;;;4.80;99.90;;;;;;5057266;28;20032;-63
2021/11/17 07:22:37;;;;;;;28.48;11.20;;;4.70;99.90;;;;;;5040014;28;20061;-63
2021/11/17 07:25:02;;;;;;;23.92;10.82;;;4.80;99.90;;;;;;5058177;28;20064;-63
2021/11/17 07:27:28;;;;;;;27.02;12.15;;;4.80;99.90;;;;;;5057564;28;20036;-63
2021/11/17 07:29:55;;;;;;;25.85;11.52;;;4.80;99.90;;;;;;5057885;28;20039;-63
2021/11/17 07:32:20;;;;;;;25.13;11.02;;;4.80;99.90;;;;;;5057268;28;20377;-64
2021/11/17 07:34:46;;;;;;;30.92;11.68;;;4.80;99.90;;;;;;5058298;28;20035;-63
2021/11/17 07:37:11;;;;;;;31.05;12.07;;;4.80;99.90;;;;;;5039932;28;20510;-63
2021/11/17 07:39:37;;;;;;;28.75;11.68;;;4.80;99.90;;;;;;5057041;28;20067;-63
2021/11/17 07:42:03;;;;;;;36.50;15.65;;;4.80;99.90;;;;;;5039645;28;20040;-63
2021/11/17 07:44:28;;;;;;;41.08;19.95;;;4.50;99.90;;;;;;5057329;28;20041;-63
2021/11/17 07:46:54;;;;;;;35.42;17.95;;;4.90;99.90;;;;;;5057610;28;20036;-63
2021/11/17 07:49:19;;;;;;;29.63;11.23;;;4.80;99.90;;;;;;5057701;28;20817;-63
2021/11/17 07:51:45;;;;;;;29.95;14.00;;;4.70;99.90;;;;;;5057136;28;20032;-63
2021/11/17 07:54:10;;;;;;;32.05;17.52;;;4.70;99.90;;;;;;5057428;28;20101;-63
2021/11/17 07:56:36;;;;;;;25.45;11.57;;;5.20;99.90;;;;;;5039569;28;20130;-63
2021/11/17 07:59:01;;;;;;;32.63;13.75;;;4.80;99.90;;;;;;5061373;28;20033;-63
2021/11/17 08:01:27;;;;;;;25.15;12.13;;;4.80;99.90;;;;;;5061395;28;20060;-63
2021/11/17 08:03:52;;;;;;;28.45;12.35;;;4.80;99.90;;;;;;5062394;28;20400;-63
2021/11/17 08:06:18;;;;;;;27.48;11.68;;;4.90;99.90;;;;;;5044939;28;20036;-63
2021/11/17 08:08:43;;;;;;;25.40;10.80;;;;;;;;;;5044366;28;20032;-63
2021/11/17 08:11:09;;;;;;;27.73;11.57;;;4.80;99.90;;;;;;5059060;28;20488;-65
2021/11/17 08:13:37;;;;;;;29.77;13.20;;;5.40;99.90;;;;;;5061899;28;20695;-62
2021/11/17 08:16:02;;;;;;;28.02;11.68;;;4.90;99.90;;;;;;5042668;28;20615;-63
2021/11/17 08:18:27;;;;;;;34.22;15.95;;;5.30;99.90;;;;;;5043359;28;20031;-63
2021/11/17 08:20:53;;;;;;;30.20;13.23;;;5.00;99.90;;;;;;5061479;28;20501;-63
2021/11/17 08:23:18;;;;;;;26.27;11.90;;;4.80;99.90;;;;;;5043266;28;20037;-63
2021/11/17 08:25:46;;;;;;;24.98;10.95;;;4.90;99.90;;;;;;5061747;28;20036;-63
2021/11/17 08:28:11;;;;;;;24.73;11.45;;;5.00;99.90;;;;;;5043254;28;20458;-63
2021/11/17 08:30:37;;;;;;;23.98;11.60;;;5.00;99.90;;;;;;5060436;28;20024;-63
2021/11/17 08:33:02;;;;;;;31.77;11.77;;;4.90;99.90;;;;;;5061675;28;20623;-63
2021/11/17 08:35:28;;;;;;;30.33;13.48;;;5.00;99.90;;;;;;5061676;28;20769;-63
2021/11/17 08:37:53;;;;;;;29.45;12.45;;;5.10;99.90;;;;;;5061020;28;20033;-63
2021/11/17 08:40:19;;;;;;;26.35;11.85;;;5.10;99.90;;;;;;5060522;28;20036;-63
2021/11/17 08:42:45;;;;;;;26.80;12.35;;;5.20;99.90;;;;;;5042499;28;20031;-63
2021/11/17 08:45:10;;;;;;;30.48;14.30;;;5.20;99.90;;;;;;5060819;28;20764;-63
2021/11/17 08:47:36;;;;;;;24.20;11.30;;;5.20;99.90;;;;;;5060391;28;20043;-63
2021/11/17 08:50:01;;;;;;;22.60;10.40;;;5.30;99.90;;;;;;5060859;28;20040;-63
2021/11/17 08:52:27;;;;;;;25.23;11.43;;;5.30;99.90;;;;;;5060106;28;20036;-63
2021/11/17 08:54:53;;;;;;;19.38;10.10;;;5.30;99.90;;;;;;5059523;28;20028;-63
2021/11/17 08:57:20;;;;;;;25.65;11.65;;;5.30;99.90;;;;;;5060162;28;20024;-64
2021/11/17 08:59:46;;;;;;;32.38;12.93;;;5.40;99.90;;;;;;5038980;28;20443;-63
2021/11/17 09:02:11;;;;;;;26.52;10.40;;;5.40;99.90;;;;;;5060748;28;20064;-63
2021/11/17 09:04:37;;;;;;;21.85;10.00;;;5.40;99.90;;;;;;5060574;28;20222;-63
2021/11/17 09:07:02;;;;;;;25.02;11.70;;;5.40;99.90;;;;;;5058267;28;20036;-64
2021/11/17 09:09:28;;;;;;;25.15;10.70;;;5.40;99.90;;;;;;5060767;28;20786;-63
2021/11/17 09:11:53;;;;;;;24.27;13.07;;;5.40;99.90;;;;;;5059747;28;20036;-63
2021/11/17 09:14:19;;;;;;;22.92;10.88;;;5.40;99.90;;;;;;5060688;28;20047;-63
2021/11/17 09:16:45;;;;;;;20.88;10.70;;;5.40;99.90;;;;;;5060035;28;20032;-63
2021/11/17 09:19:11;;;;;;;19.27;9.23;;;5.40;99.90;;;;;;5059986;28;20544;-63
2021/11/17 09:21:36;;;;;;;23.05;11.10;;;5.40;99.90;;;;;;5060933;28;20068;-63
2021/11/17 09:24:02;;;;;;;23.10;9.85;;;5.50;99.90;;;;;;5039939;28;20128;-63
2021/11/17 09:26:27;;;;;;;21.73;10.32;;;5.50;99.90;;;;;;5042614;28;20040;-63
2021/11/17 09:28:53;;;;;;;22.10;10.25;;;5.50;99.90;;;;;;5059382;28;20516;-63
2021/11/17 09:31:18;;;;;;;24.08;11.20;;;5.50;99.90;;;;;;5058293;28;20071;-63
2021/11/17 09:33:46;;;;;;;24.95;11.98;;;5.40;99.90;;;;;;5059556;28;20038;-63
2021/11/17 09:36:12;;;;;;;25.05;12.02;;;5.50;99.90;;;;;;5059573;28;20036;-64
2021/11/17 09:38:38;;;;;;;23.15;10.73;;;5.50;99.90;;;;;;5059226;28;20036;-63
2021/11/17 09:41:04;;;;;;;22.77;11.05;;;5.50;99.90;;;;;;5040714;28;20135;-63
2021/11/17 09:43:30;;;;;;;24.83;11.18;;;5.60;99.90;;;;;;5041283;28;20054;-63
2021/11/17 09:45:55;;;;;;;21.80;9.95;;;5.50;99.90;;;;;;5059586;28;20884;-63
2021/11/17 09:48:21;;;;;;;26.50;10.90;;;5.60;99.90;;;;;;5057112;28;20036;-63
2021/11/17 09:50:46;;;;;;;22.65;10.77;;;5.50;99.90;;;;;;5058167;28;20113;-63
2021/11/17 09:53:12;;;;;;;22.15;9.48;;;5.60;99.90;;;;;;5058189;28;20529;-63
2021/11/17 09:55:37;;;;;;;25.67;11.60;;;5.60;99.90;;;;;;5058059;28;20143;-63
2021/11/17 09:58:03;;;;;;;26.00;12.70;;;6.00;99.90;;;;;;5058118;28;20024;-62
2021/11/17 10:00:28;;;;;;;20.55;9.43;;;6.10;99.90;;;;;;5057620;28;20683;-63
2021/11/17 10:02:54;;;;;;;25.10;11.25;;;5.80;99.90;;;;;;5058774;28;20778;-63
2021/11/17 10:05:20;;;;;;;23.67;10.45;;;5.70;99.90;;;;;;5059792;28;20063;-63
2021/11/17 10:13:11;;;;;;;21.95;10.25;;;5.70;99.90;;;;;;5059708;28;20036;-62
2021/11/17 10:15:37;;;;;;;19.75;9.25;;;5.20;99.90;;;;;;5039527;28;20119;-63
2021/11/17 10:18:07;;;;;;;22.83;10.02;;;5.50;99.90;;;;;;5059418;28;20037;-64
2021/11/17 10:20:33;;;;;;;24.48;10.25;;;5.60;99.90;;;;;;5059455;28;20032;-63
2021/11/17 10:22:59;;;;;;;22.83;10.35;;;5.90;99.90;;;;;;5059895;28;20144;-63
2021/11/17 10:25:24;;;;;;;22.38;9.98;;;5.70;99.90;;;;;;5059535;28;20142;-63
2021/11/17 10:27:50;;;;;;;24.40;10.50;;;5.70;99.90;;;;;;5059154;28;20036;-63
2021/11/17 10:30:15;;;;;;;20.20;10.10;;;5.70;99.90;;;;;;5059387;28;20067;-63
2021/11/17 10:32:41;;;;;;;20.05;9.73;;;5.60;99.90;;;;;;5058410;28;20086;-63
2021/11/17 10:35:06;;;;;;;18.25;9.13;;;5.70;99.90;;;;;;5040614;28;20043;-64
2021/11/17 10:37:32;;;;;;;20.73;10.95;;;5.70;99.90;;;;;;5056900;28;20032;-62
2021/11/17 10:39:57;;;;;;;18.73;9.50;;;5.70;99.90;;;;;;5056038;28;20086;-63
2021/11/17 10:42:23;;;;;;;20.02;10.25;;;5.80;99.90;;;;;;5055991;28;20025;-62
2021/11/17 10:44:49;;;;;;;20.65;9.95;;;5.90;99.90;;;;;;5037495;28;20501;-63
2021/11/17 10:47:15;;;;;;;17.05;8.55;;;5.90;99.90;;;;;;5056576;28;20038;-62
2021/11/17 10:49:41;;;;;;;23.90;11.10;;;5.90;99.90;;;;;;5057816;28;20040;-62
2021/11/17 10:52:06;;;;;;;22.45;9.88;;;6.00;99.90;;;;;;5057598;28;20060;-62
2021/11/17 10:54:32;;;;;;;17.52;9.35;;;6.00;99.90;;;;;;5058646;28;20036;-62
2021/11/17 10:56:58;;;;;;;21.55;10.32;;;6.00;99.90;;;;;;5057772;28;20444;-63
2021/11/17 10:59:24;;;;;;;22.95;9.70;;;;;;;;;;5058646;28;20024;-63
2021/11/17 11:01:49;;;;;;;17.40;9.40;;;6.00;99.90;;;;;;5041075;28;20851;-63
2021/11/17 11:04:15;;;;;;;19.55;9.10;;;5.90;99.90;;;;;;5058996;28;20033;-62
2021/11/17 11:06:40;;;;;;;17.95;9.38;;;5.90;99.90;;;;;;5059045;28;20048;-63
2021/11/17 11:09:06;;;;;;;19.38;9.60;;;5.80;99.90;;;;;;5058539;28;20040;-63
2021/11/17 11:11:31;;;;;;;19.63;9.77;;;5.90;99.90;;;;;;5058137;28;20083;-62
2021/11/17 11:13:57;;;;;;;17.02;8.95;;;5.90;99.90;;;;;;5057539;28;20110;-63
2021/11/17 11:16:22;;;;;;;22.38;10.27;;;5.90;99.90;;;;;;5058670;28;20549;-62
2021/11/17 11:18:47;;;;;;;21.48;9.52;;;5.90;99.90;;;;;;5056957;28;20046;-63
2021/11/17 11:21:13;;;;;;;19.23;9.95;;;5.90;99.90;;;;;;5057315;28;20807;-63
2021/11/17 11:23:38;;;;;;;19.15;9.20;;;6.00;99.90;;;;;;5056189;28;20032;-63
2021/11/17 11:26:04;;;;;;;17.65;8.50;;;6.00;99.90;;;;;;5057520;28;20135;-63
2021/11/17 11:28:29;;;;;;;18.40;9.80;;;6.00;99.90;;;;;;5057419;28;20040;-63
2021/11/17 11:30:55;;;;;;;22.15;10.07;;;6.10;99.90;;;;;;5057425;28;20024;-63
2021/11/17 11:33:21;;;;;;;22.88;10.48;;;6.10;99.90;;;;;;5057960;28;20072;-63
2021/11/17 11:35:46;;;;;;;19.98;9.80;;;6.10;99.90;;;;;;5057762;28;20078;-63
2021/11/17 11:38:11;;;;;;;17.90;10.05;;;6.10;99.90;;;;;;5057653;28;20027;-63
2021/11/17 11:40:37;;;;;;;26.20;12.18;;;6.10;99.90;;;;;;5057997;28;20817;-63
2021/11/17 11:43:02;;;;;;;24.23;11.93;;;6.10;99.90;;;;;;5037893;28;20044;-63
2021/11/17 11:45:29;;;;;;;29.65;10.38;;;6.10;99.90;;;;;;5057733;28;20183;-63
2021/11/17 11:47:55;;;;;;;20.90;10.25;;;6.10;99.90;;;;;;5039923;28;20120;-63
2021/11/17 11:50:20;;;;;;;18.00;8.50;;;6.10;99.90;;;;;;5057983;28;20101;-63
2021/11/17 11:52:46;;;;;;;17.48;9.73;;;6.20;99.90;;;;;;5056921;28;20032;-63
2021/11/17 11:55:11;;;;;;;17.17;9.65;;;6.20;99.90;;;;;;5058009;28;20029;-63
2021/11/17 11:57:37;;;;;;;20.27;10.00;;;6.10;99.90;;;;;;5057523;28;20036;-63
2021/11/17 12:00:02;;;;;;;18.20;10.15;;;6.10;99.90;;;;;;5057381;28;20032;-63
2021/11/17 12:02:29;;;;;;;18.83;9.95;;;6.20;99.90;;;;;;5058027;28;20032;-62
2021/11/17 12:04:55;;;;;;;19.02;9.60;;;6.30;99.90;;;;;;5057486;28;20110;-63
2021/11/17 12:07:20;;;;;;;17.77;9.23;;;6.40;99.90;;;;;;5057537;28;20381;-63
2021/11/17 12:09:46;;;;;;;16.83;8.57;;;6.70;99.90;;;;;;5039984;28;20041;-63
2021/11/17 12:12:11;;;;;;;26.00;11.20;;;6.70;99.90;;;;;;5057347;28;20565;-63
2021/11/17 12:14:37;;;;;;;18.08;8.77;;;;;;;;;;5056920;28;20037;-63
2021/11/17 12:17:03;;;;;;;15.63;8.23;;;6.90;99.90;;;;;;5057856;28;20028;-63
2021/11/17 12:19:30;;;;;;;14.63;8.07;;;6.90;99.90;;;;;;5038964;28;20064;-63
2021/11/17 12:21:55;;;;;;;14.65;7.75;;;6.90;99.90;;;;;;5057552;28;20031;-63
2021/11/17 12:24:23;;;;;;;16.38;8.13;;;6.90;99.90;;;;;;5039748;28;20048;-63
2021/11/17 12:26:49;;;;;;;17.75;8.85;;;;;;;;;;5057206;28;20798;-63
2021/11/17 12:29:14;;;;;;;16.67;8.48;;;7.70;99.90;;;;;;5057800;28;20037;-63
2021/11/17 12:31:40;;;;;;;16.27;9.48;;;7.20;99.90;;;;;;5057765;28;20068;-63
2021/11/17 12:34:05;;;;;;;16.25;8.88;;;7.10;99.90;;;;;;5058096;28;20036;-64
2021/11/17 12:36:31;;;;;;;18.02;9.75;;;6.90;99.90;;;;;;5039714;28;20044;-63
2021/11/17 12:38:56;;;;;;;21.90;10.43;;;6.90;99.90;;;;;;5057267;28;20060;-63
2021/11/17 12:41:22;;;;;;;20.17;10.90;;;7.00;99.90;;;;;;5056639;28;20467;-64
2021/11/17 12:43:47;;;;;;;16.38;8.73;;;7.00;99.90;;;;;;5060622;28;20032;-63
2021/11/17 12:46:13;;;;;;;15.30;7.70;;;7.00;99.90;;;;;;5061243;28;20028;-63
2021/11/17 12:48:38;;;;;;;18.10;8.48;;;6.90;99.90;;;;;;5060804;28;20040;-62
2021/11/17 12:51:04;;;;;;;16.58;8.20;;;7.00;99.90;;;;;;5061045;28;20075;-63
2021/11/17 12:53:29;;;;;;;19.50;7.78;;;7.00;99.90;;;;;;5043393;28;20044;-63
2021/11/17 12:55:54;;;;;;;19.92;8.88;;;7.50;99.90;;;;;;5060871;28;20029;-63
2021/11/17 12:58:20;;;;;;;20.42;9.15;;;7.00;99.90;;;;;;5059964;28;20020;-63
2021/11/17 13:00:45;;;;;;;18.33;9.55;;;7.00;99.90;;;;;;5060075;28;20040;-63
2021/11/17 13:03:11;;;;;;;13.88;7.30;;;7.00;99.90;;;;;;5042197;28;20040;-63
2021/11/17 13:05:37;;;;;;;15.18;8.88;;;7.00;99.90;;;;;;5042375;28;20037;-62
2021/11/17 13:08:02;;;;;;;25.25;12.88;;;7.00;99.90;;;;;;5060752;28;20043;-63
2021/11/17 13:10:28;;;;;;;28.02;18.25;;;7.70;99.90;;;;;;5060859;28;20047;-63
2021/11/17 13:12:53;;;;;;;15.60;8.68;;;7.10;99.90;;;;;;5060291;28;20036;-63
2021/11/17 13:15:22;;;;;;;16.23;9.93;;;7.10;99.90;;;;;;5024272;28;20032;-64
2021/11/17 13:17:47;;;;;;;15.00;7.18;;;7.20;99.90;;;;;;5060793;28;20090;-63
2021/11/17 13:20:13;;;;;;;17.00;7.93;;;7.10;99.90;;;;;;5057420;28;20274;-63
2021/11/17 13:22:39;;;;;;;14.60;8.77;;;7.10;99.90;;;;;;5059960;28;20061;-63
2021/11/17 13:25:05;;;;;;;13.25;7.43;;;7.10;99.90;;;;;;5060108;28;20574;-63
2021/11/17 13:27:30;;;;;;;11.98;7.13;;;7.10;99.90;;;;;;5039124;28;20036;-62
2021/11/17 13:29:56;;;;;;;15.20;8.18;;;7.10;99.90;;;;;;5058723;28;20055;-63
2021/11/17 13:32:22;;;;;;;14.77;7.10;;;7.10;99.90;;;;;;5059378;28;20036;-63
2021/11/17 13:34:47;;;;;;;11.50;6.55;;;7.20;99.90;;;;;;5059137;28;20108;-64
2021/11/17 13:37:13;;;;;;;17.10;8.63;;;7.20;99.90;;;;;;5039745;28;20032;-63
2021/11/17 13:39:38;;;;;;;11.60;6.60;;;7.40;99.90;;;;;;5041350;28;20036;-63
2021/11/17 13:42:04;;;;;;;11.38;6.50;;;7.40;99.90;;;;;;5060992;28;20040;-64
2021/11/17 13:44:29;;;;;;;10.40;5.75;;;7.40;99.90;;;;;;5059776;28;20075;-63
2021/11/17 13:46:55;;;;;;;9.68;6.25;;;7.20;99.90;;;;;;5060088;28;20032;-63
2021/11/17 13:49:21;;;;;;;10.20;6.25;;;7.20;99.90;;;;;;5059886;28;20040;-63
2021/11/17 13:51:46;;;;;;;11.82;5.93;;;7.20;99.90;;;;;;5059847;28;20032;-63
2021/11/17 13:54:12;;;;;;;11.65;5.88;;;7.20;99.90;;;;;;5059802;28;20039;-64
2021/11/17 13:56:38;;;;;;;13.88;6.15;;;7.20;99.90;;;;;;5051248;28;20494;-63
2021/11/17 13:59:03;;;;;;;15.65;6.80;;;7.20;99.90;;;;;;5039897;28;20762;-63
2021/11/17 14:01:29;;;;;;;12.95;7.70;;;7.10;99.90;;;;;;5059757;28;20121;-63
2021/11/17 14:03:54;;;;;;;10.20;5.55;;;7.20;99.90;;;;;;5041192;28;20821;-63
2021/11/17 14:06:20;;;;;;;10.50;5.50;;;7.20;99.90;;;;;;5057434;28;20649;-64
2021/11/17 14:08:46;;;;;;;10.10;5.97;;;7.10;99.90;;;;;;5040658;28;20036;-63
2021/11/17 14:11:11;;;;;;;11.10;5.35;;;7.10;99.90;;;;;;5058646;28;20041;-64
2021/11/17 14:13:37;;;;;;;8.20;4.50;;;7.10;99.90;;;;;;5039523;28;20400;-63
2021/11/17 14:16:05;;;;;;;9.55;5.15;;;7.10;99.90;;;;;;5055682;28;20043;-64
2021/11/17 14:18:31;;;;;;;9.85;5.05;;;7.10;99.90;;;;;;5058896;28;20029;-63
2021/11/17 14:20:56;;;;;;;11.00;5.10;;;7.10;99.90;;;;;;5059331;28;20036;-63
2021/11/17 14:23:22;;;;;;;8.07;4.90;;;7.20;99.90;;;;;;5040610;28;20472;-63
2021/11/17 14:25:48;;;;;;;14.80;5.70;;;7.30;99.90;;;;;;5057847;28;20036;-63
2021/11/17 14:28:13;;;;;;;9.23;5.07;;;7.20;99.90;;;;;;5058756;28;20020;-63
2021/11/17 14:30:41;;;;;;;12.15;5.53;;;7.30;99.90;;;;;;5059486;28;20028;-64
2021/11/17 14:33:07;;;;;;;9.73;5.28;;;7.20;99.90;;;;;;5060192;28;20040;-63
2021/11/17 14:35:32;;;;;;;10.13;4.90;;;7.20;99.90;;;;;;5058702;28;20036;-63
2021/11/17 14:38:00;;;;;;;8.75;4.82;;;7.10;99.90;;;;;;5058049;28;20029;-63
2021/11/17 14:40:26;;;;;;;12.40;5.88;;;7.20;99.90;;;;;;5059363;28;20504;-63
2021/11/17 14:42:52;;;;;;;13.50;5.25;;;7.10;99.90;;;;;;5057902;28;20032;-62
2021/11/17 14:45:17;;;;;;;8.38;5.10;;;7.10;99.90;;;;;;5057883;28;20036;-63
2021/11/17 14:47:43;;;;;;;8.48;4.65;;;7.10;99.90;;;;;;5056900;28;20028;-63
2021/11/17 14:50:09;;;;;;;8.63;4.55;;;7.10;99.90;;;;;;5057795;28;20753;-63
2021/11/17 14:52:34;;;;;;;9.25;4.60;;;7.00;99.90;;;;;;5056937;28;20054;-63
2021/11/17 14:55:00;;;;;;;9.50;4.90;;;6.90;99.90;;;;;;5038444;28;20032;-63
2021/11/17 14:57:25;;;;;;;10.13;5.50;;;6.90;99.90;;;;;;5057267;28;20056;-63
2021/11/17 14:59:53;;;;;;;12.48;7.82;;;6.70;99.90;;;;;;5058108;28;20139;-63
2021/11/17 15:02:18;;;;;;;11.95;6.07;;;6.70;99.90;;;;;;5039486;28;20074;-63